Lester B. Pearson International Airport
CYYZ : now visible

Airfield :











YOU CAN JOIN US ON...

 
LOGIN :

Register | Disclaimer

   EN    FR    IT 

 









Legend :    VFR   Marginal VFR   IFR   Intensive IFR   Very Intensive IFR
Visi :
Ceiling :
>= 8 km
>= 3000ft
5 to 8 km
1000 to 3000 ft
1500m to 5 km
500 to 1000 ft
800 to 1500m
200 to 500 ft
< 800m
< 200 ft
Symbols :   Thunderstorms  Fog  Heavy snow  Heavy precipitations  Wind > 20 kt






- Airport Elevation : 569 ft
- IATA code : YYZ


CYYZ - Lester B. Pearson International

CURRENT METAR :
  • 242100Z 15005KT 130V200 15SM FEW035 OVC070 M03/M10 A3018 RMK CF1AS7 SLP231

EXPIRED METARs :
  • 242000Z 11003KT 090V170 15SM BKN035 OVC070 M03/M10 A3018 RMK SC6AS2 SLP231
  • 241900Z 14005KT 070V170 15SM OVC032 M03/M10 A3020 RMK SC8 SLP237

TAF TAF CYYZ
Valid from the 24 at 21:00 until the 26 at 00:00 UTC


242038Z 2421/2524 VRB03KT P6SM BKN030 OVC080
TEMPO 2421/2422 SCT030 BKN100
FM242200 VRB03KT P6SM SCT020 OVC060
TEMPO 2422/2504 P6SM -SN
FM250400 VRB03KT P6SM FEW030 BKN050
FM250800 35005KT P6SM BKN020 BKN040
BECMG 2516/2518 23007KT SCT025
FM252100 14007KT P6SM SCT030 BKN240
FM252300 05007KT P6SM BKN030 BKN200 RMK NXT FCST BY 250000Z
CZYZ FIR / North America



MET'MAP, your aeronautical weather chart ! - Copyright ORBIFLY December 2007 - Disclaimer

ORBIFLY MET'MAP TEAM :

Programming & Development : Alexandra Zaïnal
Concept & original design : Baudouin d'Aumeries
Assistance for programming : Marc-Olivier Méhu
Technical & hardware support : Manuel Goepfert

Contact : metmap@orbifly.com




SOURCES & CREDITS :

   NOAA       Earth
Advisory